Birmingham, AL (35218)

8:24 AM CDT on March 28, 2017 (GMT -0500)
Regency Terrace Condos | | Change Station

Elev 211 ft 33.48 °N, 86.82 °W | Updated 16 seconds ago

Overcast
Overcast
65.9 °F
Feels Like 65.9 °F
N
6.0
Wind Variable Wind from North

Today
High -- | Low -- °F
--% Chance of Precip.
Yesterday
High -- | Low -- °F
Precip. -- in
Pressure 30.02 in
Visibility 7.0 miles
Clouds Mostly Cloudy 800 ft
Mostly Cloudy 1300 ft
Dew Point 63 °F
Humidity 91%
Rainfall Not available.
Snow Depth Not available.
6:40 AM 7:05 PM
New Moon, 0% visible
SPECI KBHM 281309Z 20003KT 7SM BKN008 BKN013 19/18 A3002 RMK AO2 T01890183
Pressure 30.02 in
Visibility 7.0 miles
Clouds Mostly Cloudy 800 ft
Mostly Cloudy 1300 ft
Dew Point 63 °F
Humidity 91%
Rainfall Not available.
Snow Depth Not available.
6:40 AM 7:05 PM
New Moon, 0% visible
SPECI KBHM 281309Z 20003KT 7SM BKN008 BKN013 19/18 A3002 RMK AO2 T01890183

Get Severe Weather Alerts

Thanks for signing up!

Be on the lookout for a verification email in your inbox.

You'll start receiving the daily forecast at 8 AM.

×

10-Day Weather Forecast

Almanac

Astronomy

Mar. 28, 2017 Rise Set
Actual Time
Civil Twilight
Nautical Twilight
Astronomical Twilight
Moon
Length of Visible Light
Length of Day
Tomorrow will be .
, % of the Moon is Illuminated

Today's Extremes

State Highs State Lows

Community

WunderPhotos

Upload Photos

1,962,540 photos uploaded!

WunderBlog® & News

Nearby

Air Quality

  Air Quality AQ Index Pollutant
Not available.

Snow Depth

Station Depth Elevation

Earthquake Activity

City Distance Mag. Time & Date
Minimum magnitude displayed is 2.5.

Earthquake Activity

City Distance Mag. Time & Date
Minimum magnitude displayed is 2.5.

Coastal Water Temperatures

Place Temperature

Stations

Nearby Weather Stations

Station Location Temp. Windchill Dew Point Humidity Wind Precip. Elev Updated Type
                   

Watches & Warnings

There are currently no watches in effect.